createdAt,value
2023-09-25T00:00:37.276Z,1.23
2023-09-25T00:03:05.594Z,1.17
2023-09-25T00:05:33.053Z,1.13
2023-09-25T00:08:00.281Z,1.35
2023-09-25T00:10:27.475Z,1.25
2023-09-25T00:12:54.559Z,1.15
2023-09-25T00:15:21.665Z,1.10
2023-09-25T00:17:50.183Z,1.38
2023-09-25T00:20:21.287Z,1.30
2023-09-25T00:22:48.341Z,1.00
2023-09-25T00:25:15.344Z,1.08
2023-09-25T00:27:42.431Z,1.15
2023-09-25T00:30:10.743Z,1.63
2023-09-25T00:32:38.532Z,1.50
2023-09-25T00:35:11.287Z,1.20
2023-09-25T00:37:39.951Z,1.10
2023-09-25T00:40:22.772Z,1.02
2023-09-25T00:42:51.617Z,1.33
2023-09-25T00:45:18.797Z,1.25
2023-09-25T00:47:45.918Z,1.17
2023-09-25T00:50:13.986Z,1.17
2023-09-25T00:52:45.649Z,1.30
2023-09-25T00:55:17.647Z,1.35
2023-09-25T00:57:50.080Z,1.10
2023-09-25T01:00:19.409Z,1.95
2023-09-25T01:02:48.852Z,1.10
2023-09-25T01:05:16.489Z,1.30
2023-09-25T01:07:43.670Z,1.70
2023-09-25T01:10:16.778Z,1.20
2023-09-25T01:12:45.885Z,1.30
2023-09-25T01:15:15.498Z,1.10
2023-09-25T01:17:44.287Z,1.50
2023-09-25T01:20:18.715Z,1.88
2023-09-25T01:22:48.446Z,1.20
2023-09-25T01:25:17.452Z,1.23
2023-09-25T01:27:48.790Z,1.25
2023-09-25T01:30:17.374Z,1.30
2023-09-25T01:32:46.732Z,1.50
2023-09-25T01:35:17.452Z,1.20
2023-09-25T01:37:46.247Z,1.25
2023-09-25T01:40:14.998Z,0.80
2023-09-25T01:42:42.221Z,1.10
2023-09-25T01:45:10.199Z,1.17
2023-09-25T01:47:38.548Z,1.20
2023-09-25T01:50:06.308Z,1.10
2023-09-25T01:52:33.365Z,1.67
2023-09-25T01:55:00.405Z,1.65
2023-09-25T01:57:28.740Z,2.50
2023-09-25T01:59:55.898Z,2.13
2023-09-25T02:02:22.900Z,2.30
2023-09-25T02:04:50.334Z,2.80
2023-09-25T02:07:19.878Z,2.45
2023-09-25T02:09:47.369Z,2.75
2023-09-25T02:12:14.411Z,2.13
2023-09-25T02:14:41.588Z,2.17
2023-09-25T02:17:08.754Z,2.05
2023-09-25T02:19:36.215Z,2.00
2023-09-25T02:22:07.781Z,2.05
2023-09-25T02:24:35.902Z,1.92
2023-09-25T02:27:02.981Z,1.90
2023-09-25T02:29:31.164Z,2.10
2023-09-25T02:31:58.350Z,1.70
2023-09-25T02:34:25.898Z,1.92
2023-09-25T02:36:52.903Z,1.80
2023-09-25T02:39:19.966Z,1.98
2023-09-25T02:41:47.074Z,2.25
2023-09-25T02:44:14.164Z,1.77
2023-09-25T02:46:41.226Z,2.42
2023-09-25T02:49:08.359Z,1.80
2023-09-25T02:51:35.499Z,1.73
2023-09-25T02:54:02.774Z,1.90
2023-09-25T02:56:30.630Z,1.55
2023-09-25T02:58:58.993Z,1.73
2023-09-25T03:01:26.080Z,1.60
2023-09-25T03:03:53.293Z,1.60
2023-09-25T03:06:20.583Z,2.25
2023-09-25T03:08:48.015Z,1.63
2023-09-25T03:11:15.308Z,1.50
2023-09-25T03:13:42.553Z,1.23
2023-09-25T03:16:14.770Z,1.50
2023-09-25T03:18:42.851Z,1.63
2023-09-25T03:21:15.006Z,1.48
2023-09-25T03:23:42.621Z,1.38
2023-09-25T03:26:17.253Z,1.50
2023-09-25T03:28:45.706Z,1.15
2023-09-25T03:31:14.040Z,1.33
2023-09-25T03:33:41.998Z,1.20
2023-09-25T03:36:10.094Z,1.35
2023-09-25T03:38:38.474Z,1.40
2023-09-25T03:41:06.912Z,1.40
2023-09-25T03:43:34.143Z,1.42
2023-09-25T03:46:03.697Z,1.20
2023-09-25T03:48:32.156Z,1.30
2023-09-25T03:50:59.322Z,1.05
2023-09-25T03:53:26.430Z,1.25
2023-09-25T03:55:53.761Z,1.80
2023-09-25T03:58:21.863Z,1.42
2023-09-25T04:00:49.149Z,1.42
2023-09-25T04:03:16.427Z,1.33
2023-09-25T04:05:43.635Z,1.52
2023-09-25T04:08:10.788Z,1.10
2023-09-25T04:10:39.130Z,1.30
2023-09-25T04:13:06.208Z,1.55
2023-09-25T04:15:33.920Z,1.30
2023-09-25T04:18:01.875Z,1.23
2023-09-25T04:20:29.514Z,1.40
2023-09-25T04:22:59.965Z,1.38
2023-09-25T04:25:28.864Z,1.33
2023-09-25T04:27:57.018Z,1.70
2023-09-25T04:30:25.223Z,1.70
2023-09-25T04:32:56.384Z,1.27
2023-09-25T04:35:25.224Z,1.40
2023-09-25T04:37:52.876Z,1.30
2023-09-25T04:40:26.397Z,1.30
2023-09-25T04:42:54.129Z,1.33
2023-09-25T04:45:21.668Z,1.50
2023-09-25T04:47:50.002Z,1.38
2023-09-25T04:50:17.260Z,1.17
2023-09-25T04:52:47.120Z,1.50
2023-09-25T04:55:15.087Z,1.40
2023-09-25T04:57:46.791Z,1.70
2023-09-25T05:00:23.413Z,1.50
2023-09-25T05:02:51.502Z,1.70
2023-09-25T05:05:18.996Z,1.27
2023-09-25T05:07:50.609Z,1.67
2023-09-25T05:10:20.380Z,1.95
2023-09-25T05:12:47.544Z,2.00
2023-09-25T05:15:16.095Z,2.05
2023-09-25T05:17:44.882Z,1.95
2023-09-25T05:20:17.698Z,1.63
2023-09-25T05:22:47.674Z,2.13
2023-09-25T05:25:15.514Z,1.83
2023-09-25T05:27:48.320Z,1.77
2023-09-25T05:30:18.629Z,10.15
2023-09-25T05:32:51.459Z,8.70
2023-09-25T05:35:20.492Z,6.30
2023-09-25T05:37:49.750Z,4.70
2023-09-25T05:40:18.448Z,1.90
2023-09-25T05:42:49.802Z,2.25
2023-09-25T05:45:19.249Z,1.80
2023-09-25T05:47:46.610Z,2.28
2023-09-25T05:50:14.717Z,2.47
2023-09-25T05:52:42.109Z,2.17
2023-09-25T05:55:10.132Z,2.05
2023-09-25T05:57:37.779Z,2.25
2023-09-25T06:00:13.776Z,2.17
2023-09-25T06:02:43.376Z,2.20
2023-09-25T06:05:15.142Z,2.03
2023-09-25T06:07:46.239Z,2.25
2023-09-25T06:10:13.670Z,1.73
2023-09-25T06:12:41.309Z,1.80
2023-09-25T06:15:13.012Z,1.95
2023-09-25T06:17:41.881Z,1.75
2023-09-25T06:20:18.278Z,2.55
2023-09-25T06:22:47.631Z,1.83
2023-09-25T06:25:18.702Z,1.85
2023-09-25T06:27:49.427Z,1.90
2023-09-25T06:30:17.924Z,2.10
2023-09-25T06:32:45.456Z,2.08
2023-09-25T06:35:13.723Z,1.85
2023-09-25T06:37:41.029Z,1.63
2023-09-25T06:40:11.999Z,1.55
2023-09-25T06:42:40.951Z,1.58
2023-09-25T06:45:10.019Z,1.38
2023-09-25T06:47:39.481Z,1.50
2023-09-25T06:50:07.152Z,2.13
2023-09-25T06:52:34.861Z,4.53
2023-09-25T06:55:02.155Z,5.32
2023-09-25T06:57:32.695Z,6.55
2023-09-25T07:00:01.514Z,8.20
2023-09-25T07:02:33.855Z,6.57
2023-09-25T07:05:01.238Z,7.45
2023-09-25T07:07:30.945Z,8.60
2023-09-25T07:09:58.380Z,8.13
2023-09-25T07:12:27.536Z,7.43
2023-09-25T07:14:58.226Z,7.25
2023-09-25T07:17:26.063Z,12.57
2023-09-25T07:19:54.349Z,10.48
2023-09-25T07:22:22.080Z,7.47
2023-09-25T07:24:49.960Z,6.07
2023-09-25T07:27:17.729Z,5.70
2023-09-25T07:29:48.522Z,3.65
2023-09-25T07:32:17.113Z,3.65
2023-09-25T07:34:45.055Z,3.42
2023-09-25T07:37:14.032Z,3.35
2023-09-25T07:39:41.648Z,3.35
2023-09-25T07:42:09.263Z,3.22
2023-09-25T07:44:38.017Z,3.00
2023-09-25T07:47:12.080Z,3.65
2023-09-25T07:49:46.224Z,3.63
2023-09-25T07:52:19.498Z,5.70
2023-09-25T07:54:50.758Z,5.43
2023-09-25T07:57:20.805Z,5.60
2023-09-25T07:59:49.117Z,4.63
2023-09-25T08:02:22.115Z,3.95
2023-09-25T08:04:50.581Z,3.67
2023-09-25T08:07:20.050Z,3.80
2023-09-25T08:09:48.531Z,3.85
2023-09-25T08:12:16.165Z,3.88
2023-09-25T08:14:43.452Z,4.38
2023-09-25T08:17:10.595Z,4.45
2023-09-25T08:19:37.850Z,3.78
2023-09-25T08:22:04.978Z,3.33
2023-09-25T08:24:32.337Z,2.80
2023-09-25T08:27:01.100Z,2.97
2023-09-25T08:29:28.734Z,5.70
2023-09-25T08:31:56.363Z,8.02
2023-09-25T08:34:23.872Z,6.30
2023-09-25T08:36:51.144Z,5.55
2023-09-25T08:39:18.876Z,7.18
2023-09-25T08:41:47.655Z,5.75
2023-09-25T08:44:18.045Z,4.63
2023-09-25T08:46:45.911Z,4.60
2023-09-25T08:49:13.431Z,4.00
2023-09-25T08:51:41.158Z,3.78
2023-09-25T08:54:09.582Z,3.85
2023-09-25T08:56:38.134Z,3.65
2023-09-25T08:59:05.569Z,2.70
2023-09-25T09:01:33.224Z,2.95
2023-09-25T09:04:01.041Z,2.95
2023-09-25T09:06:28.522Z,2.47
2023-09-25T09:08:58.508Z,1.80
2023-09-25T09:11:26.168Z,1.55
2023-09-25T09:13:53.358Z,1.92
2023-09-25T09:16:20.964Z,2.28
2023-09-25T09:18:49.201Z,1.88
2023-09-25T09:21:28.672Z,1.90
2023-09-25T09:23:58.798Z,1.95
2023-09-25T09:26:27.009Z,1.90
2023-09-25T09:28:57.201Z,1.98
2023-09-25T09:31:24.307Z,2.25
2023-09-25T09:33:56.430Z,2.40
2023-09-25T09:36:24.782Z,1.85
2023-09-25T09:38:53.452Z,1.67
2023-09-25T09:41:20.702Z,1.77
2023-09-25T09:43:48.600Z,2.20
2023-09-25T09:46:17.346Z,1.80
2023-09-25T09:48:47.947Z,1.63
2023-09-25T09:51:19.467Z,1.90
2023-09-25T09:53:47.124Z,1.40
2023-09-25T09:56:16.941Z,1.50
2023-09-25T09:58:44.433Z,1.92
2023-09-25T10:01:12.186Z,1.50
2023-09-25T10:03:40.306Z,1.25
2023-09-25T10:06:08.333Z,1.40
2023-09-25T10:08:35.706Z,1.17
2023-09-25T10:11:21.924Z,1.27
2023-09-25T10:13:49.056Z,1.40
2023-09-25T10:16:17.132Z,1.20
2023-09-25T10:18:44.666Z,1.10
2023-09-25T10:21:15.396Z,1.05
2023-09-25T10:23:55.563Z,1.27
2023-09-25T10:26:25.727Z,1.50
2023-09-25T10:29:13.685Z,1.40
2023-09-25T10:31:47.049Z,1.20
2023-09-25T10:34:14.537Z,1.20
2023-09-25T10:36:43.935Z,1.45
2023-09-25T10:39:14.689Z,1.30
2023-09-25T10:41:44.165Z,1.10
2023-09-25T10:44:11.397Z,1.00
2023-09-25T10:46:38.602Z,0.90
2023-09-25T10:49:12.115Z,1.30
2023-09-25T10:51:39.700Z,1.10
2023-09-25T10:54:07.010Z,0.90
2023-09-25T10:56:34.495Z,1.13
2023-09-25T10:59:02.829Z,0.77
2023-09-25T11:01:32.397Z,0.90
2023-09-25T11:04:01.706Z,0.90
2023-09-25T11:06:30.347Z,2.10
2023-09-25T11:09:12.974Z,0.93
2023-09-25T11:11:42.158Z,1.10
2023-09-25T11:14:09.611Z,0.80
2023-09-25T11:16:37.424Z,0.90
2023-09-25T11:19:12.107Z,1.23
2023-09-25T11:21:41.329Z,1.08
2023-09-25T11:24:10.969Z,1.00
2023-09-25T11:26:39.234Z,1.00
2023-09-25T11:29:07.857Z,0.70
2023-09-25T11:31:50.163Z,1.08
2023-09-25T11:34:24.206Z,1.58
2023-09-25T11:36:51.400Z,0.75
2023-09-25T11:39:18.649Z,1.10
2023-09-25T11:41:46.982Z,0.77
2023-09-25T11:44:15.344Z,1.00
2023-09-25T11:46:43.894Z,0.90
2023-09-25T11:49:13.441Z,1.30
2023-09-25T11:51:41.312Z,1.30
2023-09-25T11:54:08.950Z,1.27
2023-09-25T11:56:36.276Z,1.08
2023-09-25T11:59:03.366Z,1.05
2023-09-25T12:01:30.585Z,0.70
2023-09-25T12:03:58.532Z,1.08
2023-09-25T12:06:28.009Z,1.20
2023-09-25T12:08:56.371Z,0.80
2023-09-25T12:11:23.636Z,1.00
2023-09-25T12:13:51.511Z,0.90
2023-09-25T12:16:19.901Z,1.00
2023-09-25T12:18:48.181Z,1.05
2023-09-25T12:21:15.606Z,1.20
2023-09-25T12:23:46.789Z,1.30
2023-09-25T12:26:16.269Z,1.00
2023-09-25T12:28:44.040Z,0.65
2023-09-25T12:31:11.373Z,1.13
2023-09-25T12:33:38.675Z,1.00
2023-09-25T12:36:06.269Z,0.47
2023-09-25T12:38:33.375Z,0.93
2023-09-25T12:41:00.553Z,0.95
2023-09-25T12:43:27.752Z,1.25
2023-09-25T12:45:55.409Z,1.17
2023-09-25T12:48:25.446Z,0.95
2023-09-25T12:50:53.078Z,0.75
2023-09-25T12:53:20.524Z,1.00
2023-09-25T12:55:47.624Z,1.10
2023-09-25T12:58:15.043Z,0.70
2023-09-25T13:00:42.278Z,0.98
2023-09-25T13:03:10.049Z,1.48
2023-09-25T13:05:37.562Z,1.10
2023-09-25T13:08:05.126Z,1.05
2023-09-25T13:10:32.607Z,0.90
2023-09-25T13:12:59.846Z,0.90
2023-09-25T13:15:27.385Z,1.05
2023-09-25T13:17:54.776Z,0.98
2023-09-25T13:20:22.432Z,1.08
2023-09-25T13:22:50.138Z,1.08
2023-09-25T13:25:17.311Z,1.00
2023-09-25T13:27:51.114Z,1.10
2023-09-25T13:30:20.479Z,0.93
2023-09-25T13:32:48.310Z,1.10
2023-09-25T13:35:15.915Z,0.93
2023-09-25T13:37:44.058Z,1.10
2023-09-25T13:40:12.522Z,1.55
2023-09-25T13:42:39.969Z,1.00
2023-09-25T13:45:08.283Z,0.93
2023-09-25T13:47:35.975Z,0.85
2023-09-25T13:50:03.374Z,0.95
2023-09-25T13:52:30.928Z,0.82
2023-09-25T13:54:58.596Z,1.23
2023-09-25T13:57:26.014Z,1.20
2023-09-25T13:59:53.347Z,1.00
2023-09-25T14:02:20.557Z,1.15
2023-09-25T14:04:48.684Z,3.92
2023-09-25T14:07:15.995Z,3.33
2023-09-25T14:09:43.257Z,1.08
2023-09-25T14:12:10.581Z,0.93
2023-09-25T14:14:46.982Z,1.17
2023-09-25T14:17:14.488Z,1.10
2023-09-25T14:19:41.689Z,2.53
2023-09-25T14:22:08.896Z,1.30
2023-09-25T14:24:36.217Z,1.52
2023-09-25T14:27:03.901Z,1.20
2023-09-25T14:29:32.449Z,1.25
2023-09-25T14:32:00.897Z,1.20
2023-09-25T14:34:28.003Z,0.85
2023-09-25T14:36:55.276Z,1.10
2023-09-25T14:39:29.723Z,1.30
2023-09-25T14:41:57.577Z,1.17
2023-09-25T14:44:24.580Z,1.17
2023-09-25T14:46:52.699Z,1.13
2023-09-25T14:49:20.069Z,1.00
2023-09-25T14:51:47.534Z,1.40
2023-09-25T14:54:15.385Z,1.30
2023-09-25T14:56:42.501Z,1.15
2023-09-25T14:59:09.653Z,1.02
2023-09-25T15:01:36.987Z,1.00
2023-09-25T15:04:05.377Z,1.10
2023-09-25T15:06:32.627Z,1.10
2023-09-25T15:08:59.801Z,1.38
2023-09-25T15:11:27.089Z,1.05
2023-09-25T15:13:54.149Z,1.15
2023-09-25T15:16:21.394Z,1.27
2023-09-25T15:18:48.805Z,1.05
2023-09-25T15:21:15.947Z,1.10
2023-09-25T15:23:43.178Z,1.10
2023-09-25T15:26:10.802Z,2.22
2023-09-25T15:28:38.071Z,1.27
2023-09-25T15:31:05.350Z,1.10
2023-09-25T15:33:32.603Z,1.65
2023-09-25T15:35:59.731Z,1.60
2023-09-25T15:38:26.927Z,2.72
2023-09-25T15:40:53.990Z,1.35
2023-09-25T15:43:21.273Z,1.00
2023-09-25T15:45:48.497Z,1.23
2023-09-25T15:48:15.638Z,1.10
2023-09-25T15:50:42.837Z,1.00
2023-09-25T15:53:10.262Z,1.10
2023-09-25T15:55:37.666Z,0.95
2023-09-25T15:58:10.756Z,0.95
2023-09-25T16:00:38.936Z,1.25
2023-09-25T16:03:06.407Z,1.13
2023-09-25T16:05:33.860Z,0.90
2023-09-25T16:08:01.005Z,0.88
2023-09-25T16:10:28.359Z,0.98
2023-09-25T16:12:55.598Z,1.10
2023-09-25T16:15:23.000Z,0.88
2023-09-25T16:17:50.272Z,1.00
2023-09-25T16:20:17.682Z,1.00
2023-09-25T16:22:44.964Z,1.20
2023-09-25T16:25:12.234Z,0.80
2023-09-25T16:27:39.690Z,1.00
2023-09-25T16:30:07.436Z,0.77
2023-09-25T16:32:34.755Z,0.95
2023-09-25T16:35:02.018Z,1.02
2023-09-25T16:37:30.290Z,0.98
2023-09-25T16:39:57.566Z,1.30
2023-09-25T16:42:25.034Z,1.00
2023-09-25T16:44:52.064Z,1.00
2023-09-25T16:47:20.744Z,0.90
2023-09-25T16:49:50.085Z,0.90
2023-09-25T16:52:17.393Z,1.20
2023-09-25T16:54:44.617Z,1.52
2023-09-25T16:57:11.706Z,1.13
2023-09-25T16:59:38.878Z,1.88
2023-09-25T17:02:07.145Z,1.73
2023-09-25T17:04:34.566Z,2.53
2023-09-25T17:07:01.916Z,3.55
2023-09-25T17:09:29.164Z,5.47
2023-09-25T17:11:56.248Z,5.15
2023-09-25T17:14:23.643Z,3.72
2023-09-25T17:16:50.804Z,3.33
2023-09-25T17:19:17.991Z,2.97
2023-09-25T17:21:45.102Z,2.08
2023-09-25T17:24:12.163Z,1.70
2023-09-25T17:26:39.349Z,1.83
2023-09-25T17:29:06.421Z,1.63
2023-09-25T17:31:33.792Z,1.48
2023-09-25T17:34:01.068Z,1.27
2023-09-25T17:36:28.297Z,1.42
2023-09-25T17:38:55.328Z,1.30
2023-09-25T17:41:22.834Z,1.40
2023-09-25T17:43:50.052Z,1.30
2023-09-25T17:46:17.578Z,1.60
2023-09-25T17:48:45.027Z,1.20
2023-09-25T17:51:12.572Z,1.83
2023-09-25T17:53:39.953Z,1.70
2023-09-25T17:56:09.746Z,1.70
2023-09-25T17:58:38.213Z,2.17
2023-09-25T18:01:05.721Z,1.90
2023-09-25T18:03:33.068Z,1.70
2023-09-25T18:06:00.348Z,2.00
2023-09-25T18:08:27.594Z,1.73
2023-09-25T18:10:54.956Z,2.33
2023-09-25T18:13:22.521Z,1.60
2023-09-25T18:15:50.883Z,1.65
2023-09-25T18:18:18.458Z,1.42
2023-09-25T18:20:46.145Z,1.40
2023-09-25T18:23:14.636Z,1.42
2023-09-25T18:25:43.356Z,1.17
2023-09-25T18:28:10.887Z,1.50
2023-09-25T18:30:38.476Z,1.60
2023-09-25T18:33:10.360Z,1.45
2023-09-25T18:35:40.233Z,1.50
2023-09-25T18:38:07.808Z,1.77
2023-09-25T18:40:36.604Z,1.90
2023-09-25T18:43:07.652Z,2.17
2023-09-25T18:45:35.195Z,1.73
2023-09-25T18:48:02.851Z,1.60
2023-09-25T18:50:30.190Z,1.60
2023-09-25T18:52:57.419Z,1.63
2023-09-25T18:55:25.007Z,1.60
2023-09-25T18:57:52.279Z,1.80
2023-09-25T19:00:19.517Z,1.55
2023-09-25T19:02:46.931Z,1.38
2023-09-25T19:05:14.285Z,1.98
2023-09-25T19:07:42.429Z,2.60
2023-09-25T19:10:13.132Z,1.98
2023-09-25T19:15:08.257Z,2.08
2023-09-25T19:17:35.397Z,1.77
2023-09-25T19:20:02.951Z,1.75
2023-09-25T19:22:32.554Z,1.60
2023-09-25T19:24:59.964Z,1.67
2023-09-25T19:27:27.373Z,1.83
2023-09-25T19:29:54.829Z,1.90
2023-09-25T19:32:25.037Z,2.17
2023-09-25T19:34:52.461Z,2.00
2023-09-25T19:37:22.297Z,2.03
2023-09-25T19:39:50.132Z,2.13
2023-09-25T19:42:18.488Z,2.47
2023-09-25T19:44:45.828Z,3.67
2023-09-25T19:47:13.050Z,8.68
2023-09-25T19:49:40.314Z,4.90
2023-09-25T19:52:07.494Z,4.50
2023-09-25T19:54:35.149Z,3.83
2023-09-25T19:57:06.367Z,4.00
2023-09-25T19:59:33.655Z,3.95
2023-09-25T20:02:01.250Z,4.13
2023-09-25T20:04:28.645Z,3.00
2023-09-25T20:06:56.908Z,3.22
2023-09-25T20:09:24.356Z,2.78
2023-09-25T20:11:51.681Z,2.70
2023-09-25T20:14:20.847Z,2.22
2023-09-25T20:16:48.624Z,2.83
2023-09-25T20:19:16.548Z,2.30
2023-09-25T20:21:44.012Z,2.15
2023-09-25T20:24:11.385Z,2.13
2023-09-25T20:26:39.614Z,2.65
2023-09-25T20:29:07.165Z,2.03
2023-09-25T20:31:34.544Z,1.90
2023-09-25T20:34:02.271Z,2.00
2023-09-25T20:36:29.708Z,1.98
2023-09-25T20:38:57.162Z,2.00
2023-09-25T20:41:24.568Z,1.75
2023-09-25T20:43:52.070Z,1.90
2023-09-25T20:46:19.739Z,2.00
2023-09-25T20:48:50.412Z,1.73
2023-09-25T20:51:17.922Z,1.88
2023-09-25T20:53:45.410Z,1.90
2023-09-25T20:56:12.801Z,2.10
2023-09-25T20:58:39.973Z,2.28
2023-09-25T21:01:08.629Z,2.13
2023-09-25T21:03:35.970Z,1.92
2023-09-25T21:06:03.403Z,1.92
2023-09-25T21:08:30.908Z,2.10
2023-09-25T21:10:59.595Z,2.47
2023-09-25T21:13:26.877Z,5.00
2023-09-25T21:15:54.105Z,6.63
2023-09-25T21:18:21.410Z,7.03
2023-09-25T21:20:49.149Z,3.80
2023-09-25T21:23:16.537Z,2.58
2023-09-25T21:25:43.898Z,2.25
2023-09-25T21:28:11.155Z,1.90
2023-09-25T21:30:41.850Z,2.38
2023-09-25T21:33:09.280Z,2.30
2023-09-25T21:35:36.365Z,2.40
2023-09-25T21:38:03.922Z,12.70
2023-09-25T21:40:31.234Z,5.43
2023-09-25T21:42:58.382Z,2.92
2023-09-25T21:45:25.738Z,3.35
2023-09-25T21:47:52.931Z,2.85
2023-09-25T21:50:20.902Z,2.30
2023-09-25T21:52:48.229Z,2.80
2023-09-25T21:55:15.555Z,2.47
2023-09-25T21:57:42.844Z,2.60
2023-09-25T22:00:11.390Z,2.38
2023-09-25T22:02:41.475Z,2.00
2023-09-25T22:05:10.819Z,2.30
2023-09-25T22:07:38.654Z,2.10
2023-09-25T22:10:06.623Z,1.80
2023-09-25T22:12:33.874Z,2.20
2023-09-25T22:15:01.509Z,1.77
2023-09-25T22:17:31.439Z,2.10
2023-09-25T22:19:58.561Z,1.90
2023-09-25T22:22:26.505Z,2.10
2023-09-25T22:24:53.700Z,2.03
2023-09-25T22:27:21.112Z,2.05
2023-09-25T22:29:48.373Z,1.98
2023-09-25T22:32:15.466Z,2.20
2023-09-25T22:34:45.679Z,1.80
2023-09-25T22:37:12.890Z,2.05
2023-09-25T22:39:40.146Z,1.90
2023-09-25T22:42:07.395Z,2.03
2023-09-25T22:44:34.615Z,1.80
2023-09-25T22:47:01.802Z,1.92
2023-09-25T22:49:29.072Z,2.50
2023-09-25T22:51:56.395Z,2.13
2023-09-25T22:54:23.739Z,2.15
2023-09-25T22:56:50.959Z,2.25
2023-09-25T22:59:18.224Z,2.00
2023-09-25T23:01:48.548Z,2.20
2023-09-25T23:04:15.852Z,2.22
2023-09-25T23:06:45.325Z,2.40
2023-09-25T23:09:15.576Z,1.92
2023-09-25T23:11:42.768Z,1.77
2023-09-25T23:14:10.852Z,2.22
2023-09-25T23:16:38.041Z,1.90
2023-09-25T23:19:05.181Z,2.17
2023-09-25T23:21:32.256Z,2.00
2023-09-25T23:23:59.642Z,1.83
2023-09-25T23:26:26.725Z,2.25
2023-09-25T23:28:53.817Z,1.83
2023-09-25T23:31:20.990Z,2.10
2023-09-25T23:33:48.594Z,1.92
2023-09-25T23:36:16.985Z,2.10
2023-09-25T23:38:45.334Z,1.98
2023-09-25T23:41:12.398Z,2.28
2023-09-25T23:43:39.593Z,2.28
2023-09-25T23:46:07.892Z,2.05
2023-09-25T23:48:35.426Z,2.00
2023-09-25T23:51:02.568Z,1.95
2023-09-25T23:53:29.643Z,2.60
2023-09-25T23:56:06.483Z,2.22
2023-09-25T23:58:33.561Z,2.08
